Time;durP1;ratioP1;P1;durP2;ratioP2;P2;SDS_P1;SDS_P2;PMS_P1;PMS_P2;Temp;Humidity;BMP_temperature;BMP_pressure;BME280_temperature;BME280_humidity;BME280_pressure;Samples;Min_cycle;Max_cycle;Signal;HPM_P1;HPM_P2
2022/01/27 00:04:01;;;;;;;22.27;19.63;;;;;20.70;101697.00;;;;2057421;28;20270;-63
2022/01/27 00:05:12;;;;;;;20.45;17.75;;;;;20.70;101695.00;;;;2066947;28;20240;-63
2022/01/27 00:06:14;;;;;;;20.40;17.70;;;;;20.70;101698.00;;;;2057436;28;20237;-63
2022/01/27 00:07:14;;;;;;;21.35;18.30;;;;;20.70;101689.00;;;;2066291;28;20302;-63
2022/01/27 00:08:24;;;;;;;21.07;18.87;;;;;20.70;101687.00;;;;2067780;28;20219;-62
2022/01/27 00:09:42;;;;;;;21.58;18.13;;;;;20.70;101680.00;;;;2067831;28;20260;-62
2022/01/27 00:10:52;;;;;;;24.20;18.63;;;;;20.70;101681.00;;;;2066563;28;20692;-62
2022/01/27 00:11:53;;;;;;;20.08;17.52;;;;;20.70;101683.00;;;;2065213;28;20223;-63
2022/01/27 00:12:55;;;;;;;22.07;18.63;;;;;20.70;101672.00;;;;2066707;28;20230;-63
2022/01/27 00:13:59;;;;;;;20.65;17.70;;;;;20.70;101681.00;;;;2068437;28;20634;-63
2022/01/27 00:15:13;;;;;;;20.67;17.60;;;;;20.70;101681.00;;;;2064958;28;20218;-64
2022/01/27 00:16:23;;;;;;;21.05;17.10;;;;;20.60;101676.00;;;;2068650;28;20293;-62
2022/01/27 00:17:29;;;;;;;21.73;18.75;;;;;20.60;101693.00;;;;2065899;28;20210;-62
2022/01/27 00:18:30;;;;;;;20.02;17.92;;;;;20.60;101669.00;;;;2068568;28;20222;-63
2022/01/27 00:19:30;;;;;;;22.77;18.43;;;;;20.60;101676.00;;;;2067978;28;20215;-62
2022/01/27 00:20:31;;;;;;;21.03;17.83;;;;;20.60;101678.00;;;;2068991;28;20385;-63
2022/01/27 00:21:31;;;;;;;21.80;17.80;;;;;20.60;101693.00;;;;2069366;28;20214;-63
2022/01/27 00:22:32;;;;;;;20.97;18.23;;;;;20.60;101667.00;;;;2064154;28;20462;-63
2022/01/27 00:23:32;;;;;;;23.97;18.57;;;;;20.60;101680.00;;;;2068298;28;20673;-62
2022/01/27 00:24:32;;;;;;;21.90;18.30;;;;;20.60;101666.00;;;;2068386;28;20731;-63
2022/01/27 00:25:33;;;;;;;21.10;17.60;;;;;20.60;101669.00;;;;2067312;28;20582;-63
2022/01/27 00:26:34;;;;;;;20.80;17.87;;;;;20.60;101675.00;;;;2068231;28;20629;-62
2022/01/27 00:27:34;;;;;;;23.43;17.90;;;;;20.60;101663.00;;;;2064888;28;20721;-63
2022/01/27 00:28:34;;;;;;;19.33;15.90;;;;;20.60;101664.00;;;;2068423;28;20449;-63
2022/01/27 00:29:35;;;;;;;21.53;18.73;;;;;20.60;101666.00;;;;2068390;28;20234;-63
2022/01/27 00:30:36;;;;;;;20.60;17.83;;;;;20.60;101660.00;;;;2068276;28;20295;-63
2022/01/27 00:31:36;;;;;;;20.95;18.15;;;;;20.60;101658.00;;;;2068796;28;20281;-63
2022/01/27 00:32:37;;;;;;;19.53;17.10;;;;;20.60;101651.00;;;;2067436;28;20223;-63
2022/01/27 00:33:37;;;;;;;19.87;17.70;;;;;20.60;101654.00;;;;2069757;28;20221;-63
2022/01/27 00:34:37;;;;;;;19.67;16.47;;;;;20.60;101661.00;;;;2071174;28;20289;-63
2022/01/27 00:35:38;;;;;;;19.03;17.07;;;;;20.60;101652.00;;;;2070123;28;20203;-63
2022/01/27 00:36:38;;;;;;;19.50;17.10;;;;;20.60;101641.00;;;;2068430;28;20210;-63
2022/01/27 00:37:38;;;;;;;21.47;18.17;;;;;20.50;101630.00;;;;2068161;28;20222;-63
2022/01/27 00:38:39;;;;;;;19.40;17.40;;;;;20.50;101629.00;;;;2068417;28;20209;-63
2022/01/27 00:39:39;;;;;;;20.40;17.83;;;;;20.50;101636.00;;;;2068512;28;20218;-62
2022/01/27 00:40:39;;;;;;;19.17;17.07;;;;;20.50;101636.00;;;;2068902;28;20226;-62
2022/01/27 00:41:40;;;;;;;18.87;16.87;;;;;20.50;101632.00;;;;2068896;28;20659;-63
2022/01/27 00:42:41;;;;;;;19.13;17.03;;;;;20.60;101618.00;;;;2068625;28;20633;-63
2022/01/27 00:43:43;;;;;;;19.83;16.67;;;;;20.50;101625.00;;;;2067719;28;20223;-63
2022/01/27 00:44:43;;;;;;;19.15;17.15;;;;;20.50;101620.00;;;;2063538;28;20229;-62
2022/01/27 00:45:43;;;;;;;18.43;16.53;;;;;20.50;101616.00;;;;2067510;28;20245;-63
2022/01/27 00:46:44;;;;;;;20.80;18.10;;;;;20.50;101620.00;;;;2058501;28;20207;-63
2022/01/27 00:47:44;;;;;;;21.07;18.40;;;;;20.50;101620.00;;;;2067880;28;20302;-63
2022/01/27 00:48:45;;;;;;;19.27;17.17;;;;;20.50;101606.00;;;;2061430;28;20218;-63
2022/01/27 00:49:45;;;;;;;19.57;17.00;;;;;20.50;101607.00;;;;2076110;28;20706;-63
2022/01/27 00:50:55;;;;;;;18.97;17.07;;;;;20.50;101595.00;;;;2073320;28;20221;-63
2022/01/27 00:51:56;;;;;;;21.10;17.20;;;;;20.50;101609.00;;;;2063078;28;20257;-63
2022/01/27 00:52:58;;;;;;;19.42;17.42;;;;;20.50;101596.00;;;;2058113;28;20218;-63
2022/01/27 00:54:04;;;;;;;19.45;16.95;;;;;20.50;101599.00;;;;2068114;28;20706;-63
2022/01/27 00:55:08;;;;;;;19.13;17.08;;;;;20.50;101612.00;;;;2064901;28;20221;-63
2022/01/27 00:56:29;;;;;;;20.52;17.65;;;;;20.50;101595.00;;;;2068210;28;20578;-63
2022/01/27 00:58:51;;;;;;;21.02;17.77;;;;;20.50;101578.00;;;;2068526;28;20213;-63
2022/01/27 00:59:57;;;;;;;18.92;16.63;;;;;20.50;101577.00;;;;2068777;28;20206;-63
2022/01/27 01:01:02;;;;;;;17.98;16.08;;;;;20.50;101577.00;;;;2064524;28;20698;-63
2022/01/27 01:03:40;;;;;;;18.27;16.20;;;;;20.40;101575.00;;;;2049340;28;21585;-63
2022/01/27 01:04:45;;;;;;;18.45;16.52;;;;;20.50;101580.00;;;;2071855;28;20225;-63
2022/01/27 01:05:54;;;;;;;18.55;16.55;;;;;20.50;101580.00;;;;2072495;28;20363;-63
2022/01/27 01:06:54;;;;;;;18.77;16.90;;;;;20.40;101595.00;;;;2067910;28;20706;-63
2022/01/27 01:07:59;;;;;;;18.90;17.00;;;;;20.40;101573.00;;;;2066057;28;20215;-63
2022/01/27 01:15:06;;;;;;;18.02;16.13;;;;;20.40;101583.00;;;;2063786;28;20757;-63
2022/01/27 01:16:08;;;;;;;18.50;16.58;;;;;20.40;101585.00;;;;2062929;28;20222;-62
2022/01/27 01:18:36;;;;;;;18.33;16.43;;;;;20.40;101586.00;;;;2071214;28;20211;-63
2022/01/27 01:32:40;;;;;;;17.20;15.40;;;;;20.40;101579.00;;;;2068328;28;20215;-63
2022/01/27 01:33:43;;;;;;;17.70;15.55;;;;;20.30;101575.00;;;;2068502;28;20210;-63
2022/01/27 01:34:47;;;;;;;17.83;15.98;;;;;20.30;101548.00;;;;2067718;28;20250;-63
2022/01/27 01:35:49;;;;;;;16.65;14.95;;;;;20.30;101576.00;;;;2067887;28;20217;-63
2022/01/27 01:37:00;;;;;;;17.70;15.82;;;;;20.30;101582.00;;;;2067930;28;20214;-62
2022/01/27 01:38:00;;;;;;;18.50;16.60;;;;;20.30;101585.00;;;;2068239;28;20226;-62
2022/01/27 01:39:00;;;;;;;17.67;15.87;;;;;20.30;101588.00;;;;2068732;28;20221;-62
2022/01/27 01:40:01;;;;;;;16.03;14.37;;;;;20.30;101578.00;;;;2068193;28;20203;-63
2022/01/27 01:41:01;;;;;;;17.27;15.47;;;;;20.30;101565.00;;;;2067459;28;20216;-62
2022/01/27 01:42:07;;;;;;;17.33;15.53;;;;;20.30;101562.00;;;;2067757;28;20202;-63
2022/01/27 01:43:07;;;;;;;16.90;15.20;;;;;20.30;101563.00;;;;2067801;28;20210;-63
2022/01/27 01:44:08;;;;;;;17.47;15.70;;;;;20.30;101571.00;;;;2068126;28;20649;-63
2022/01/27 01:45:13;;;;;;;17.27;15.47;;;;;20.30;101568.00;;;;2068103;28;20218;-63
2022/01/27 01:46:13;;;;;;;17.35;15.55;;;;;20.30;101554.00;;;;2059935;28;20222;-63
2022/01/27 01:47:13;;;;;;;17.07;15.37;;;;;20.30;101559.00;;;;2066700;28;20688;-63
2022/01/27 01:48:15;;;;;;;17.07;15.37;;;;;20.30;101555.00;;;;2067130;28;20563;-62
2022/01/27 01:49:15;;;;;;;17.08;15.30;;;;;20.30;101560.00;;;;2062762;28;20237;-63
2022/01/27 01:50:16;;;;;;;17.63;15.77;;;;;20.30;101551.00;;;;2074630;28;20225;-63
2022/01/27 01:51:35;;;;;;;18.00;16.13;;;;;20.30;101563.00;;;;2059846;28;20214;-62
2022/01/27 01:52:35;;;;;;;17.95;16.13;;;;;20.30;101565.00;;;;2067113;28;20214;-63
2022/01/27 01:53:36;;;;;;;18.30;15.90;;;;;20.30;101558.00;;;;2067712;28;20253;-63
2022/01/27 01:54:36;;;;;;;17.77;15.90;;;;;20.30;101555.00;;;;2059913;28;20215;-63
2022/01/27 01:55:38;;;;;;;17.67;15.70;;;;;20.30;101549.00;;;;2067689;28;20926;-62
2022/01/27 01:56:39;;;;;;;17.98;16.20;;;;;20.30;101544.00;;;;2068255;28;20861;-63
2022/01/27 01:57:39;;;;;;;17.65;15.80;;;;;20.30;101537.00;;;;2067444;28;20221;-62
2022/01/27 01:58:39;;;;;;;17.33;15.63;;;;;20.30;101537.00;;;;2067767;28;20210;-62
2022/01/27 01:59:40;;;;;;;18.60;16.70;;;;;20.30;101532.00;;;;2067627;28;20265;-62
2022/01/27 02:00:40;;;;;;;18.57;16.77;;;;;20.30;101539.00;;;;2067495;28;20203;-62
2022/01/27 02:01:41;;;;;;;17.17;15.40;;;;;20.30;101532.00;;;;2068374;28;20231;-63
2022/01/27 02:02:41;;;;;;;17.80;15.90;;;;;20.30;101542.00;;;;2067774;28;20273;-62
2022/01/27 02:03:41;;;;;;;17.13;15.40;;;;;20.30;101547.00;;;;2067687;28;20214;-62
2022/01/27 02:04:42;;;;;;;18.23;15.80;;;;;20.30;101547.00;;;;2067626;28;20203;-62
2022/01/27 02:05:48;;;;;;;17.97;16.17;;;;;20.30;101542.00;;;;2067158;28;20257;-63
2022/01/27 02:06:54;;;;;;;18.02;16.27;;;;;20.20;101547.00;;;;2066980;28;20276;-62
2022/01/27 02:08:35;;;;;;;18.45;16.48;;;;;20.20;101551.00;;;;2066949;28;20417;-63
2022/01/27 02:10:09;;;;;;;17.60;15.45;;;;;20.30;101558.00;;;;2058303;28;20214;-63
2022/01/27 02:18:07;;;;;;;18.10;16.20;;;;;20.20;101549.00;;;;2062743;28;20222;-62
2022/01/27 02:19:07;;;;;;;17.25;15.50;;;;;20.20;101559.00;;;;2066592;28;20666;-63
2022/01/27 02:20:08;;;;;;;17.27;15.43;;;;;20.20;101554.00;;;;2067405;28;20222;-62
2022/01/27 02:21:08;;;;;;;17.53;15.73;;;;;20.20;101551.00;;;;2057751;28;20234;-63
2022/01/27 02:22:09;;;;;;;16.30;14.57;;;;;20.20;101551.00;;;;2075001;28;20532;-63
2022/01/27 02:23:10;;;;;;;19.37;16.40;;;;;20.20;101538.00;;;;2066727;28;20256;-62
2022/01/27 02:24:10;;;;;;;18.60;15.90;;;;;20.20;101533.00;;;;2066386;28;20214;-62
2022/01/27 02:25:10;;;;;;;16.83;15.13;;;;;20.20;101529.00;;;;2067225;28;20810;-62
2022/01/27 02:26:11;;;;;;;17.47;15.60;;;;;20.10;101529.00;;;;2067002;28;20634;-62
2022/01/27 02:27:11;;;;;;;17.60;15.80;;;;;20.20;101517.00;;;;2065649;28;20225;-63
2022/01/27 02:28:11;;;;;;;17.77;15.37;;;;;20.20;101509.00;;;;2066705;28;20322;-62
2022/01/27 02:29:12;;;;;;;17.30;14.83;;;;;20.10;101507.00;;;;2067034;28;20226;-62
2022/01/27 02:30:12;;;;;;;16.67;14.97;;;;;20.20;101510.00;;;;2067817;28;20230;-62
2022/01/27 02:31:12;;;;;;;17.43;15.63;;;;;20.20;101515.00;;;;2067487;28;20222;-62
2022/01/27 02:32:14;;;;;;;16.53;14.80;;;;;20.10;101506.00;;;;2067591;28;20250;-63
2022/01/27 02:33:14;;;;;;;16.90;15.15;;;;;20.20;101514.00;;;;2066160;28;20218;-62
2022/01/27 02:34:14;;;;;;;18.00;15.90;;;;;20.10;101512.00;;;;2066878;28;20217;-62
2022/01/27 02:35:15;;;;;;;17.97;15.47;;;;;20.10;101517.00;;;;2066334;28;20214;-63
2022/01/27 02:36:15;;;;;;;16.73;14.93;;;;;20.10;101513.00;;;;2056192;28;20233;-63
2022/01/27 02:37:15;;;;;;;16.37;14.60;;;;;20.10;101515.00;;;;2074878;28;20218;-63
2022/01/27 02:38:15;;;;;;;16.30;14.70;;;;;20.20;101517.00;;;;2066813;28;20222;-63
2022/01/27 02:39:16;;;;;;;16.80;14.33;;;;;20.10;101526.00;;;;2064272;28;20214;-62
2022/01/27 02:40:25;;;;;;;17.97;16.13;;;;;20.10;101515.00;;;;2066623;28;20214;-63
2022/01/27 02:41:26;;;;;;;18.23;16.33;;;;;20.20;101501.00;;;;2066984;28;20202;-63
2022/01/27 02:42:34;;;;;;;16.93;15.13;;;;;20.20;101508.00;;;;2066129;28;20581;-62
2022/01/27 02:43:34;;;;;;;17.45;15.48;;;;;20.10;101515.00;;;;2063025;28;20499;-63
2022/01/27 02:44:53;;;;;;;16.70;15.00;;;;;20.10;101500.00;;;;2067421;28;20221;-62
2022/01/27 02:45:53;;;;;;;16.15;14.43;;;;;20.10;101508.00;;;;2064143;28;20869;-63
2022/01/27 02:46:53;;;;;;;17.30;15.47;;;;;20.10;101528.00;;;;2067412;28;20214;-62
2022/01/27 02:47:54;;;;;;;16.40;14.57;;;;;20.10;101522.00;;;;2067257;28;20269;-63
2022/01/27 02:48:54;;;;;;;17.10;15.10;;;;;20.10;101525.00;;;;2067764;28;20203;-62
2022/01/27 02:49:54;;;;;;;17.53;15.80;;;;;20.10;101517.00;;;;2069145;28;20373;-63
2022/01/27 02:50:55;;;;;;;17.40;15.60;;;;;20.10;101511.00;;;;2067001;28;20217;-63
2022/01/27 02:51:56;;;;;;;18.02;16.10;;;;;20.10;101491.00;;;;2067182;28;20223;-62
2022/01/27 02:52:56;;;;;;;16.47;14.77;;;;;20.10;101509.00;;;;2067635;28;20758;-62
2022/01/27 02:53:57;;;;;;;16.60;14.90;;;;;20.10;101501.00;;;;2070648;28;20675;-62
2022/01/27 02:54:57;;;;;;;15.80;14.10;;;;;20.10;101500.00;;;;2067033;28;20226;-63
2022/01/27 02:55:58;;;;;;;16.33;14.63;;;;;20.10;101505.00;;;;2067269;28;20516;-62
2022/01/27 02:56:58;;;;;;;18.47;16.13;;;;;20.10;101496.00;;;;2067327;28;20219;-63
2022/01/27 02:57:59;;;;;;;16.63;14.90;;;;;20.10;101504.00;;;;2070605;28;20511;-63
2022/01/27 02:59:00;;;;;;;16.17;14.47;;;;;20.10;101490.00;;;;2066267;28;20221;-63
2022/01/27 03:00:00;;;;;;;17.10;15.30;;;;;20.10;101486.00;;;;2066493;28;20210;-62
2022/01/27 03:01:00;;;;;;;16.07;14.37;;;;;20.10;101491.00;;;;2067104;28;20215;-62
2022/01/27 03:02:01;;;;;;;15.40;13.80;;;;;20.10;101483.00;;;;2063307;28;20233;-62
2022/01/27 03:03:01;;;;;;;17.53;15.10;;;;;20.10;101478.00;;;;2067217;28;20640;-63
2022/01/27 03:04:02;;;;;;;15.77;14.07;;;;;20.00;101483.00;;;;2066570;28;20349;-63
2022/01/27 03:05:03;;;;;;;15.40;13.80;;;;;20.00;101479.00;;;;2066531;28;20226;-62
2022/01/27 03:06:03;;;;;;;16.92;14.77;;;;;20.00;101479.00;;;;2067961;28;20325;-63
2022/01/27 03:07:04;;;;;;;16.37;14.67;;;;;20.10;101478.00;;;;2067930;28;20230;-63
2022/01/27 03:08:05;;;;;;;16.00;14.30;;;;;20.10;101482.00;;;;2065371;28;20226;-63
2022/01/27 03:09:06;;;;;;;17.40;14.47;;;;;20.10;101482.00;;;;2067120;28;20717;-62
2022/01/27 03:10:06;;;;;;;15.93;14.23;;;;;20.00;101475.00;;;;2067085;28;20276;-61
2022/01/27 03:11:11;;;;;;;16.70;15.00;;;;;20.00;101473.00;;;;2067077;28;20666;-63
2022/01/27 03:12:11;;;;;;;16.98;15.00;;;;;20.00;101473.00;;;;2059102;28;20245;-62
2022/01/27 03:13:12;;;;;;;17.70;15.53;;;;;20.00;101472.00;;;;2051694;28;20218;-63
2022/01/27 03:14:13;;;;;;;16.40;14.70;;;;;20.00;101470.00;;;;2056706;28;20223;-62
2022/01/27 03:15:14;;;;;;;15.50;13.85;;;;;20.10;101470.00;;;;2067352;28;20230;-63
2022/01/27 03:16:14;;;;;;;16.20;14.50;;;;;20.00;101472.00;;;;2068047;28;20214;-62
2022/01/27 03:17:14;;;;;;;16.07;14.37;;;;;20.00;101484.00;;;;2067744;28;20472;-62
2022/01/27 03:18:14;;;;;;;17.67;14.87;;;;;20.00;101474.00;;;;2067542;28;20222;-62
2022/01/27 03:19:15;;;;;;;16.20;13.93;;;;;20.00;101466.00;;;;2067360;28;20219;-62
2022/01/27 03:20:15;;;;;;;16.53;14.83;;;;;20.00;101478.00;;;;2067186;28;20718;-63
2022/01/27 03:21:15;;;;;;;17.13;14.23;;;;;20.00;101461.00;;;;2062443;28;21656;-62
2022/01/27 03:22:16;;;;;;;16.13;14.43;;;;;20.00;101454.00;;;;2063016;28;20477;-62
2022/01/27 03:23:16;;;;;;;15.53;13.90;;;;;20.00;101464.00;;;;2062995;28;20580;-63
2022/01/27 03:24:18;;;;;;;15.87;13.53;;;;;20.00;101457.00;;;;2067052;28;20210;-62
2022/01/27 03:25:18;;;;;;;16.88;14.93;;;;;20.00;101457.00;;;;2067084;28;20215;-63
2022/01/27 03:26:19;;;;;;;17.30;14.03;;;;;20.00;101453.00;;;;2067729;28;20221;-63
2022/01/27 03:27:23;;;;;;;15.30;13.70;;;;;20.00;101452.00;;;;2066691;28;20215;-62
2022/01/27 03:28:27;;;;;;;16.42;14.05;;;;;20.00;101457.00;;;;2066129;28;20536;-62
2022/01/27 03:29:27;;;;;;;16.25;14.32;;;;;20.00;101469.00;;;;2067150;28;20210;-63
2022/01/27 03:30:28;;;;;;;15.37;13.73;;;;;20.00;101473.00;;;;2066067;28;20214;-63
2022/01/27 03:31:28;;;;;;;15.87;14.17;;;;;20.00;101469.00;;;;2066461;28;20242;-62
2022/01/27 03:32:29;;;;;;;15.83;14.27;;;;;20.00;101449.00;;;;2067148;28;20219;-62
2022/01/27 03:33:29;;;;;;;15.40;13.80;;;;;20.00;101467.00;;;;2067349;28;20288;-60
2022/01/27 03:34:29;;;;;;;17.10;13.77;;;;;20.00;101469.00;;;;2067697;28;20219;-62
2022/01/27 03:35:30;;;;;;;14.87;13.37;;;;;20.00;101481.00;;;;2067768;28;20211;-63
2022/01/27 03:36:30;;;;;;;16.60;14.77;;;;;20.00;101469.00;;;;2067897;28;20206;-62
2022/01/27 03:37:30;;;;;;;16.20;13.27;;;;;20.00;101471.00;;;;2064225;28;20269;-62
2022/01/27 03:38:31;;;;;;;14.07;12.67;;;;;20.00;101462.00;;;;2067721;28;20206;-63
2022/01/27 03:39:31;;;;;;;15.40;13.80;;;;;20.00;101459.00;;;;2064435;28;20219;-63
2022/01/27 03:40:32;;;;;;;15.73;14.00;;;;;20.00;101471.00;;;;2067434;28;20242;-62
2022/01/27 03:41:34;;;;;;;16.00;14.10;;;;;19.90;101469.00;;;;2067914;28;20215;-62
2022/01/27 03:42:42;;;;;;;16.50;14.43;;;;;19.90;101457.00;;;;2067176;28;20666;-63
2022/01/27 03:43:42;;;;;;;15.07;13.52;;;;;19.90;101463.00;;;;2067237;28;20301;-62
2022/01/27 03:44:42;;;;;;;14.23;12.80;;;;;19.90;101470.00;;;;2067726;28;20218;-63
2022/01/27 03:45:43;;;;;;;16.40;14.70;;;;;20.00;101456.00;;;;2068753;28;20732;-62
2022/01/27 03:46:43;;;;;;;15.93;14.33;;;;;19.90;101461.00;;;;2068890;28;20732;-62
2022/01/27 03:47:44;;;;;;;16.63;13.70;;;;;19.90;101456.00;;;;2069453;28;20222;-62
2022/01/27 03:48:44;;;;;;;15.47;13.87;;;;;19.90;101443.00;;;;2069432;28;20237;-62
2022/01/27 03:49:45;;;;;;;14.50;13.00;;;;;19.90;101452.00;;;;2067953;28;20500;-62
2022/01/27 03:50:45;;;;;;;14.93;13.27;;;;;19.90;101441.00;;;;2067656;28;20225;-62
2022/01/27 03:51:45;;;;;;;16.77;14.33;;;;;19.90;101430.00;;;;2068674;28;20640;-62
2022/01/27 03:52:46;;;;;;;18.20;14.10;;;;;19.90;101436.00;;;;2068738;28;20583;-62
2022/01/27 03:53:46;;;;;;;15.70;13.60;;;;;19.90;101434.00;;;;2068541;28;20699;-62
2022/01/27 03:54:46;;;;;;;16.10;13.90;;;;;19.90;101436.00;;;;2069088;28;20733;-62
2022/01/27 03:55:47;;;;;;;15.90;13.30;;;;;19.90;101432.00;;;;2069490;28;20219;-62
2022/01/27 03:56:47;;;;;;;15.67;13.97;;;;;19.90;101433.00;;;;2069294;28;20221;-62
2022/01/27 03:57:48;;;;;;;15.10;13.50;;;;;19.90;101418.00;;;;2068799;28;20229;-62
2022/01/27 03:58:48;;;;;;;15.03;13.50;;;;;19.90;101414.00;;;;2068352;28;20256;-62
2022/01/27 03:59:48;;;;;;;14.40;12.93;;;;;19.90;101425.00;;;;2068688;28;20218;-63
2022/01/27 04:00:49;;;;;;;15.00;13.50;;;;;19.90;101424.00;;;;2068204;28;20230;-62
2022/01/27 04:01:49;;;;;;;15.40;13.77;;;;;19.90;101426.00;;;;2068928;28;20226;-63
2022/01/27 04:03:13;;;;;;;14.43;12.63;;;;;19.90;101427.00;;;;2069086;28;20648;-62
2022/01/27 04:04:10;;;;;;;14.40;12.90;;;;;19.90;101431.00;;;;2068899;28;20222;-63
2022/01/27 04:05:12;;;;;;;15.10;13.47;;;;;19.90;101430.00;;;;2069415;28;20207;-62
2022/01/27 04:06:19;;;;;;;14.98;13.38;;;;;19.90;101435.00;;;;2069395;28;20210;-62
2022/01/27 04:07:19;;;;;;;14.93;13.30;;;;;19.90;101425.00;;;;2064811;28;20213;-62
2022/01/27 04:08:20;;;;;;;15.47;13.87;;;;;19.90;101403.00;;;;2068574;28;20759;-63
2022/01/27 04:09:20;;;;;;;15.53;13.83;;;;;19.90;101417.00;;;;2068676;28;20219;-63
2022/01/27 04:10:21;;;;;;;14.60;13.10;;;;;19.90;101423.00;;;;2068489;28;20457;-62
2022/01/27 04:11:21;;;;;;;14.67;13.10;;;;;19.90;101419.00;;;;2069112;28;20226;-63
2022/01/27 04:12:21;;;;;;;15.67;14.07;;;;;19.90;101422.00;;;;2069270;28;20218;-63
2022/01/27 04:13:22;;;;;;;17.53;13.13;;;;;19.90;101411.00;;;;2068990;28;20225;-63
2022/01/27 04:14:22;;;;;;;16.13;14.43;;;;;19.90;101419.00;;;;2068524;28;20229;-63
2022/01/27 04:15:22;;;;;;;15.73;13.43;;;;;19.90;101416.00;;;;2066746;28;20721;-63
2022/01/27 04:16:23;;;;;;;15.83;13.13;;;;;19.80;101408.00;;;;2076758;28;20787;-63
2022/01/27 04:17:23;;;;;;;14.40;13.00;;;;;19.80;101390.00;;;;2069454;28;20582;-63
2022/01/27 04:18:24;;;;;;;15.27;13.70;;;;;19.90;101411.00;;;;2069292;28;20778;-62
2022/01/27 04:19:24;;;;;;;14.37;12.87;;;;;19.90;101417.00;;;;2065052;28;20211;-63
2022/01/27 04:20:24;;;;;;;14.67;13.17;;;;;19.90;101408.00;;;;2068394;28;20714;-63
2022/01/27 04:21:25;;;;;;;16.37;13.13;;;;;19.90;101424.00;;;;2069238;28;20214;-62
2022/01/27 04:22:25;;;;;;;14.50;13.00;;;;;19.80;101417.00;;;;2068469;28;21986;-62
2022/01/27 04:23:26;;;;;;;16.63;14.33;;;;;19.80;101414.00;;;;2068882;28;20206;-62
2022/01/27 04:24:26;;;;;;;16.20;13.70;;;;;19.80;101408.00;;;;2062619;28;20220;-62
2022/01/27 04:25:26;;;;;;;16.10;14.40;;;;;19.90;101419.00;;;;2075885;28;20220;-62
2022/01/27 04:26:41;;;;;;;15.20;13.60;;;;;19.90;101412.00;;;;2072197;28;20238;-62
2022/01/27 04:27:45;;;;;;;15.02;13.43;;;;;19.80;101395.00;;;;2065992;28;20205;-63
2022/01/27 04:28:48;;;;;;;14.93;12.75;;;;;19.80;101404.00;;;;2068353;28;20226;-62
2022/01/27 04:29:48;;;;;;;14.45;13.05;;;;;19.90;101412.00;;;;2069090;28;20671;-62
2022/01/27 04:30:49;;;;;;;13.40;12.00;;;;;19.80;101413.00;;;;2068899;28;20219;-62
2022/01/27 04:31:50;;;;;;;16.13;13.73;;;;;19.90;101417.00;;;;2069143;28;20227;-62
2022/01/27 04:32:54;;;;;;;17.13;14.02;;;;;19.80;101402.00;;;;2069189;28;20218;-62
2022/01/27 04:33:55;;;;;;;13.98;12.45;;;;;19.80;101387.00;;;;2065199;28;20218;-62
2022/01/27 04:35:00;;;;;;;14.80;13.17;;;;;19.80;101393.00;;;;2068275;28;20289;-62
2022/01/27 04:36:11;;;;;;;14.35;12.85;;;;;19.80;101383.00;;;;2068160;28;20316;-62
2022/01/27 04:37:13;;;;;;;14.10;12.50;;;;;19.80;101387.00;;;;2068259;28;20219;-63
2022/01/27 04:39:24;;;;;;;16.30;13.43;;;;;19.80;101390.00;;;;2068969;28;20199;-62
2022/01/27 04:42:57;;;;;;;12.93;11.57;;;;;19.80;101381.00;;;;2068368;28;20349;-62
2022/01/27 04:44:12;;;;;;;14.13;12.68;;;;;19.80;101376.00;;;;2070406;28;20225;-63
2022/01/27 04:45:14;;;;;;;13.20;11.85;;;;;19.80;101362.00;;;;2065263;28;20210;-62
2022/01/27 04:47:31;;;;;;;16.40;13.82;;;;;19.80;101367.00;;;;2064491;28;20229;-63
2022/01/27 04:48:38;;;;;;;17.02;13.38;;;;;19.80;101357.00;;;;2071041;28;20236;-63
2022/01/27 04:49:38;;;;;;;14.15;12.65;;;;;19.80;101359.00;;;;2066113;28;20264;-63
2022/01/27 04:50:39;;;;;;;13.03;11.70;;;;;19.80;101351.00;;;;2068867;28;20580;-62
2022/01/27 04:51:40;;;;;;;13.43;12.03;;;;;19.80;101349.00;;;;2068158;28;20734;-63
2022/01/27 04:52:44;;;;;;;15.67;13.27;;;;;19.80;101351.00;;;;2064792;28;20199;-63
2022/01/27 04:55:08;;;;;;;13.70;12.27;;;;;19.80;101335.00;;;;2064818;28;20213;-62
2022/01/27 04:56:12;;;;;;;14.65;13.20;;;;;19.80;101332.00;;;;2067545;28;20646;-63
2022/01/27 04:57:13;;;;;;;14.20;12.77;;;;;19.80;101334.00;;;;2068136;28;20221;-63
2022/01/27 04:58:18;;;;;;;13.67;12.27;;;;;19.80;101342.00;;;;2069093;28;20310;-63
2022/01/27 04:59:23;;;;;;;13.30;12.00;;;;;19.80;101321.00;;;;2069044;28;20702;-62
2022/01/27 05:00:24;;;;;;;14.50;12.82;;;;;19.70;101324.00;;;;2068146;28;20649;-62
2022/01/27 05:01:32;;;;;;;14.00;12.50;;;;;19.80;101328.00;;;;2067930;28;20210;-63
2022/01/27 05:02:57;;;;;;;13.00;11.63;;;;;19.80;101325.00;;;;2067990;28;20211;-62
2022/01/27 05:03:59;;;;;;;15.45;12.45;;;;;19.70;101313.00;;;;2066926;28;20229;-62
2022/01/27 05:05:00;;;;;;;14.20;12.70;;;;;19.70;101308.00;;;;2065056;28;20236;-62
2022/01/27 05:06:01;;;;;;;14.47;12.30;;;;;19.70;101318.00;;;;2066927;28;20277;-62
2022/01/27 05:07:01;;;;;;;13.30;11.60;;;;;19.80;101316.00;;;;2068915;28;20206;-63
2022/01/27 05:08:02;;;;;;;15.80;13.70;;;;;19.80;101321.00;;;;2068446;28;20488;-63
2022/01/27 05:09:03;;;;;;;13.63;12.20;;;;;19.70;101332.00;;;;2067440;28;20684;-63
2022/01/27 05:10:10;;;;;;;13.93;12.63;;;;;19.70;101330.00;;;;2069514;28;20277;-62
2022/01/27 05:12:23;;;;;;;13.13;11.70;;;;;19.70;101329.00;;;;2068063;28;20365;-62
2022/01/27 05:13:26;;;;;;;13.68;11.90;;;;;19.70;101308.00;;;;2068261;28;20817;-62
2022/01/27 05:14:26;;;;;;;13.55;12.18;;;;;19.70;101312.00;;;;2067732;28;20221;-63
2022/01/27 05:15:27;;;;;;;13.60;12.23;;;;;19.70;101318.00;;;;2068992;28;20261;-63
2022/01/27 05:16:27;;;;;;;13.60;12.13;;;;;19.70;101315.00;;;;2066934;28;20214;-63
2022/01/27 05:17:27;;;;;;;13.23;11.83;;;;;19.70;101302.00;;;;2068453;28;20214;-63
2022/01/27 05:18:28;;;;;;;13.60;12.17;;;;;19.70;101303.00;;;;2068204;28;20609;-62
2022/01/27 05:19:28;;;;;;;12.33;11.13;;;;;19.70;101302.00;;;;2068058;28;20214;-62
2022/01/27 05:20:28;;;;;;;14.03;12.00;;;;;19.70;101308.00;;;;2067827;28;20270;-63
2022/01/27 05:21:29;;;;;;;13.40;12.10;;;;;19.70;101316.00;;;;2067911;28;20215;-63
2022/01/27 05:22:31;;;;;;;13.27;11.87;;;;;19.70;101309.00;;;;2068715;28;20214;-63
2022/01/27 05:23:31;;;;;;;12.70;11.32;;;;;19.70;101311.00;;;;2068900;28;20215;-62
2022/01/27 05:24:32;;;;;;;12.50;11.20;;;;;19.70;101323.00;;;;2069072;28;20215;-62
2022/01/27 05:25:32;;;;;;;14.03;11.93;;;;;19.70;101324.00;;;;2068894;28;20213;-62
2022/01/27 05:26:33;;;;;;;15.93;12.77;;;;;19.70;101321.00;;;;2068602;28;20210;-62
2022/01/27 05:27:34;;;;;;;15.10;12.40;;;;;19.70;101323.00;;;;2068733;28;20353;-62
2022/01/27 05:28:34;;;;;;;13.63;11.63;;;;;19.70;101311.00;;;;2068803;28;20763;-62
2022/01/27 05:29:34;;;;;;;14.90;12.20;;;;;19.70;101309.00;;;;2068726;28;20693;-62
2022/01/27 05:30:35;;;;;;;12.73;11.53;;;;;19.70;101308.00;;;;2067664;28;20702;-62
2022/01/27 05:31:37;;;;;;;14.10;11.73;;;;;19.70;101307.00;;;;2068054;28;20214;-62
2022/01/27 05:32:37;;;;;;;12.95;11.52;;;;;19.70;101302.00;;;;2067104;28;20225;-62
2022/01/27 05:33:37;;;;;;;14.23;12.73;;;;;19.70;101296.00;;;;2067906;28;20225;-62
2022/01/27 05:34:38;;;;;;;13.83;12.03;;;;;19.70;101297.00;;;;2068598;28;20207;-62
2022/01/27 05:35:38;;;;;;;14.43;12.60;;;;;19.70;101294.00;;;;2068834;28;20241;-62
2022/01/27 05:36:38;;;;;;;13.43;11.20;;;;;19.70;101306.00;;;;2068800;28;20211;-62
2022/01/27 05:37:39;;;;;;;13.30;11.90;;;;;19.70;101309.00;;;;2068598;28;20724;-63
2022/01/27 05:38:39;;;;;;;12.23;10.93;;;;;19.70;101302.00;;;;2068250;28;20210;-62
2022/01/27 05:39:39;;;;;;;15.87;12.73;;;;;19.70;101286.00;;;;2059295;28;20214;-62
2022/01/27 05:40:40;;;;;;;13.27;11.80;;;;;19.70;101292.00;;;;2064277;28;20229;-62
2022/01/27 05:41:42;;;;;;;15.13;12.60;;;;;19.70;101283.00;;;;2065295;28;20219;-62